Time;durP1;ratioP1;P1;durP2;ratioP2;P2;SDS_P1;SDS_P2;PMS_P1;PMS_P2;Temp;Humidity;BMP_temperature;BMP_pressure;BME280_temperature;BME280_humidity;BME280_pressure;Samples;Min_cycle;Max_cycle;Signal;HPM_P1;HPM_P2
2023/08/05 00:00:22;;;;;;;11.20;2.40;;;;;;;19.07;72.33;99966.80;110321;1277;22403;-81
2023/08/05 00:03:13;;;;;;;14.20;2.90;;;;;;;19.06;72.26;99966.45;110409;1277;22313;-81
2023/08/05 00:05:44;;;;;;;10.00;2.40;;;;;;;19.05;72.13;99965.13;110385;1276;22168;-81
2023/08/05 00:08:15;;;;;;;11.20;2.00;;;;;;;19.04;72.04;99964.13;110309;1268;22103;-81
2023/08/05 00:10:46;;;;;;;10.40;2.00;;;;;;;19.03;71.99;99964.52;110340;1275;22181;-81
2023/08/05 00:13:18;;;;;;;9.70;1.80;;;;;;;19.01;71.99;99962.66;110308;1277;22885;-81
2023/08/05 00:15:49;;;;;;;13.40;2.30;;;;;;;19.00;71.92;99960.19;110397;1276;22292;-81
2023/08/05 00:18:20;;;;;;;10.30;2.60;;;;;;;18.99;71.96;99960.58;110372;1265;22206;-81
2023/08/05 00:20:51;;;;;;;7.90;1.60;;;;;;;18.95;71.92;99958.60;110396;1275;22217;-81
2023/08/05 00:23:22;;;;;;;7.60;1.80;;;;;;;18.93;72.07;99960.19;110433;1276;22187;-81
2023/08/05 00:25:53;;;;;;;10.40;1.80;;;;;;;18.90;72.11;99963.69;110367;1276;22918;-81
2023/08/05 00:28:24;;;;;;;7.30;1.50;;;;;;;18.85;72.20;99969.08;110395;1262;22195;-81
2023/08/05 00:30:55;;;;;;;11.00;1.80;;;;;;;18.78;72.45;99968.15;110397;1270;22196;-82
2023/08/05 00:33:25;;;;;;;7.70;1.60;;;;;;;18.74;72.65;99964.97;110392;1276;23458;-81
2023/08/05 00:35:56;;;;;;;12.10;1.90;;;;;;;18.73;72.75;99962.63;110391;1276;22372;-81
2023/08/05 00:38:27;;;;;;;10.20;2.00;;;;;;;18.73;72.67;99955.89;110387;1276;22846;-81
2023/08/05 00:40:57;;;;;;;9.50;1.70;;;;;;;18.74;72.69;99951.55;110311;1276;22374;-81
2023/08/05 00:43:28;;;;;;;7.60;1.70;;;;;;;18.76;72.84;99951.26;110387;1276;23037;-81
2023/08/05 00:46:00;;;;;;;8.70;2.00;;;;;;;18.76;72.91;99946.20;110399;1276;22342;-81
2023/08/05 00:48:31;;;;;;;10.20;2.10;;;;;;;18.73;72.76;99943.48;110367;1276;22249;-81
2023/08/05 00:51:03;;;;;;;5.10;1.60;;;;;;;18.72;72.75;99938.69;110381;1276;22985;-81
2023/08/05 00:53:37;;;;;;;6.60;1.80;;;;;;;18.72;72.86;99932.46;110421;1276;22253;-81
2023/08/05 00:56:08;;;;;;;6.70;2.00;;;;;;;18.72;72.69;99935.19;110418;1276;23033;-81
2023/08/05 00:58:38;;;;;;;8.60;2.60;;;;;;;18.75;72.79;99932.35;110307;1276;22898;-81
2023/08/05 01:01:10;;;;;;;9.40;2.20;;;;;;;18.73;72.79;99920.36;110336;1276;22160;-81
2023/08/05 01:03:41;;;;;;;7.50;1.80;;;;;;;18.68;72.91;99919.37;110396;1276;22827;-81
2023/08/05 01:06:15;;;;;;;8.20;1.80;;;;;;;18.65;72.90;99922.14;110424;1269;22159;-81
2023/08/05 01:08:46;;;;;;;8.80;1.90;;;;;;;18.64;72.79;99924.98;110325;1277;22198;-81
2023/08/05 01:11:17;;;;;;;6.80;2.30;;;;;;;18.64;72.82;99925.21;110330;1276;22194;-81
2023/08/05 01:13:47;;;;;;;6.00;1.60;;;;;;;18.62;72.84;99926.75;110375;1276;22331;-81
2023/08/05 01:16:18;;;;;;;6.80;1.70;;;;;;;18.61;72.74;99927.06;110385;1276;22247;-81
2023/08/05 01:18:49;;;;;;;6.70;1.70;;;;;;;18.63;72.80;99923.33;110412;1276;23192;-81
2023/08/05 01:21:28;;;;;;;8.80;1.60;;;;;;;18.63;72.85;99927.95;110387;1276;22780;-81
2023/08/05 01:24:09;;;;;;;10.60;1.70;;;;;;;18.62;72.76;99922.11;110449;1265;22255;-81
2023/08/05 01:26:43;;;;;;;10.20;2.30;;;;;;;18.61;72.97;99917.04;108898;1276;23397;-81
2023/08/05 01:29:14;;;;;;;8.80;1.60;;;;;;;18.60;72.93;99915.78;108351;1276;23419;-81
2023/08/05 01:31:46;;;;;;;6.70;1.80;;;;;;;18.58;73.00;99916.80;108542;1276;25925;-80
2023/08/05 01:34:17;;;;;;;9.50;1.80;;;;;;;18.56;73.07;99917.94;108409;1253;24221;-81
2023/08/05 01:36:48;;;;;;;8.30;1.60;;;;;;;18.56;73.03;99914.95;108375;1265;23253;-81
2023/08/05 01:39:19;;;;;;;6.40;1.70;;;;;;;18.55;72.90;99902.96;108535;1276;24285;-81
2023/08/05 01:41:49;;;;;;;5.30;1.60;;;;;;;18.56;72.99;99901.77;108476;1276;22535;-81
2023/08/05 01:44:20;;;;;;;8.50;1.70;;;;;;;18.56;72.97;99895.29;108523;1276;22611;-81
2023/08/05 01:46:51;;;;;;;8.00;1.60;;;;;;;18.57;72.97;99892.14;108518;1276;25397;-81
2023/08/05 01:49:21;;;;;;;7.80;2.00;;;;;;;18.55;72.93;99894.10;108575;1276;25424;-81
2023/08/05 01:51:52;;;;;;;8.00;2.00;;;;;;;18.57;72.87;99893.67;108479;1276;22546;-81
2023/08/05 01:54:23;;;;;;;8.60;2.00;;;;;;;18.57;72.90;99886.06;108409;1274;22629;-81
2023/08/05 01:56:53;;;;;;;6.80;1.60;;;;;;;18.58;72.82;99885.99;108427;1269;23246;-81
2023/08/05 01:59:24;;;;;;;7.50;1.80;;;;;;;18.58;72.89;99889.80;108423;1274;25941;-81
2023/08/05 02:01:55;;;;;;;8.30;1.80;;;;;;;18.56;72.74;99897.13;108412;1273;25275;-81
2023/08/05 02:04:26;;;;;;;5.90;1.80;;;;;;;18.54;72.70;99905.09;108377;1276;22624;-81
2023/08/05 02:06:56;;;;;;;10.10;2.00;;;;;;;18.54;72.81;99897.58;108351;1276;22943;-81
2023/08/05 02:09:27;;;;;;;7.80;2.00;;;;;;;18.55;72.80;99896.13;108282;1272;23956;-81
2023/08/05 02:11:58;;;;;;;9.50;1.60;;;;;;;18.53;72.85;99889.07;109610;1276;22176;-81
2023/08/05 02:14:29;;;;;;;5.70;1.70;;;;;;;18.53;72.82;99886.08;110388;1276;22237;-81
2023/08/05 02:16:59;;;;;;;10.50;2.00;;;;;;;18.55;72.89;99885.73;110367;1276;22201;-81
2023/08/05 02:19:30;;;;;;;9.20;1.70;;;;;;;18.53;72.96;99891.73;110351;1275;22315;-81
2023/08/05 02:22:01;;;;;;;7.10;1.80;;;;;;;18.52;72.90;99891.45;110367;1270;22398;-81
2023/08/05 02:24:31;;;;;;;7.20;1.60;;;;;;;18.51;72.90;99884.33;110376;1276;22233;-81
2023/08/05 02:27:02;;;;;;;7.20;1.50;;;;;;;18.54;73.03;99881.03;110405;1266;22165;-81
2023/08/05 02:29:33;;;;;;;5.50;1.80;;;;;;;18.56;73.13;99880.16;110361;1278;22132;-81
2023/08/05 02:32:04;;;;;;;6.60;1.40;;;;;;;18.56;72.80;99883.52;106192;1276;5413900;-81
2023/08/05 02:34:35;;;;;;;6.00;1.50;;;;;;;18.55;72.76;99877.21;110383;1276;22216;-81
2023/08/05 02:37:06;;;;;;;7.80;1.90;;;;;;;18.54;72.73;99875.83;110391;1276;22226;-81
2023/08/05 02:39:39;;;;;;;11.50;1.50;;;;;;;18.53;72.68;99869.73;110387;1276;22284;-81
2023/08/05 02:42:10;;;;;;;5.50;1.70;;;;;;;18.53;72.59;99872.10;110410;1269;22339;-81
2023/08/05 02:44:41;;;;;;;6.10;1.40;;;;;;;18.55;72.64;99867.45;110365;1276;22141;-81
2023/08/05 02:47:11;;;;;;;6.60;1.60;;;;;;;18.55;72.60;99866.11;110375;1277;22150;-81
2023/08/05 02:49:42;;;;;;;6.90;1.80;;;;;;;18.55;72.62;99863.48;110353;1277;22636;-81
2023/08/05 02:52:13;;;;;;;6.20;1.40;;;;;;;18.55;72.64;99864.67;110300;1277;22173;-81
2023/08/05 02:54:43;;;;;;;7.00;1.30;;;;;;;18.55;72.65;99863.39;110367;1276;22241;-81
2023/08/05 02:57:14;;;;;;;9.60;1.70;;;;;;;18.54;72.61;99859.19;110374;1277;22196;-81
2023/08/05 02:59:45;;;;;;;6.80;1.80;;;;;;;18.53;72.57;99844.77;110382;1266;22173;-81
2023/08/05 03:02:15;;;;;;;9.30;1.50;;;;;;;18.53;72.60;99841.23;110312;1278;22326;-81
2023/08/05 03:04:46;;;;;;;7.70;1.60;;;;;;;18.54;72.48;99850.86;110362;1276;22155;-81
2023/08/05 03:07:17;;;;;;;10.60;1.80;;;;;;;18.56;72.45;99861.14;110251;1266;22135;-83
2023/08/05 03:09:48;;;;;;;7.30;1.40;;;;;;;18.58;72.61;99872.63;110337;1277;22144;-83
2023/08/05 03:12:19;;;;;;;6.10;1.40;;;;;;;18.59;72.66;99873.13;110316;1276;22349;-83
2023/08/05 03:14:51;;;;;;;8.80;1.50;;;;;;;18.58;72.72;99875.93;110381;1276;22203;-83
2023/08/05 03:17:22;;;;;;;6.10;2.30;;;;;;;18.55;72.79;99880.23;110391;1277;22278;-83
2023/08/05 03:19:55;;;;;;;6.20;1.30;;;;;;;18.52;72.92;99881.63;110403;1277;22226;-83
2023/08/05 03:22:26;;;;;;;6.60;1.70;;;;;;;18.51;72.94;99887.46;110322;1277;22352;-83
2023/08/05 03:24:56;;;;;;;7.50;1.90;;;;;;;18.53;73.22;99885.73;110359;1277;22511;-82
2023/08/05 03:27:27;;;;;;;8.60;1.80;;;;;;;18.53;73.29;99891.13;110375;1273;22175;-83
2023/08/05 03:29:58;;;;;;;4.50;1.30;;;;;;;18.52;73.35;99891.65;110384;1277;22360;-83
2023/08/05 03:32:29;;;;;;;6.80;1.40;;;;;;;18.52;73.37;99889.49;110386;1272;23143;-83
2023/08/05 03:34:59;;;;;;;5.60;1.50;;;;;;;18.52;73.52;99887.49;110397;1274;22286;-83
2023/08/05 03:37:30;;;;;;;9.10;1.50;;;;;;;18.50;73.71;99882.80;110400;1276;22259;-83
2023/08/05 03:40:02;;;;;;;8.10;1.50;;;;;;;18.49;73.85;99879.13;110356;1277;22163;-83
2023/08/05 03:42:33;;;;;;;7.70;1.90;;;;;;;18.44;74.39;99881.83;110387;1277;22190;-83
2023/08/05 03:45:04;;;;;;;10.50;2.50;;;;;;;18.38;75.11;99873.34;110373;1277;23095;-83
2023/08/05 03:47:35;;;;;;;12.80;3.60;;;;;;;18.29;75.13;99866.92;110302;1277;22165;-83
2023/08/05 03:50:09;;;;;;;17.10;4.70;;;;;;;18.26;75.26;99862.73;110375;1271;22161;-83
2023/08/05 03:52:40;;;;;;;15.60;5.70;;;;;;;18.22;75.35;99865.27;110373;1276;22594;-83
2023/08/05 03:55:11;;;;;;;13.00;4.20;;;;;;;18.20;75.55;99859.02;110393;1276;22200;-83
2023/08/05 03:57:42;;;;;;;11.60;3.40;;;;;;;18.20;75.54;99865.34;110397;1276;22638;-83
2023/08/05 04:00:14;;;;;;;14.40;3.00;;;;;;;18.21;75.63;99875.65;110358;1270;22230;-83
2023/08/05 04:02:44;;;;;;;11.60;3.40;;;;;;;18.23;75.55;99878.46;110367;1277;22262;-83
2023/08/05 04:05:15;;;;;;;11.50;2.90;;;;;;;18.23;75.71;99883.13;110331;1276;22207;-83
2023/08/05 04:07:47;;;;;;;10.90;3.10;;;;;;;18.23;75.98;99887.54;110327;1277;23262;-83
2023/08/05 04:10:21;;;;;;;9.60;2.90;;;;;;;18.24;76.30;99892.65;110285;1277;22576;-83
2023/08/05 04:12:51;;;;;;;12.10;2.80;;;;;;;18.25;76.21;99888.74;110356;1276;23523;-83
2023/08/05 04:15:23;;;;;;;10.40;3.80;;;;;;;18.22;76.20;99883.39;110380;1276;22145;-83
2023/08/05 04:17:59;;;;;;;12.60;4.50;;;;;;;18.19;76.19;99875.53;110366;1273;22107;-83
2023/08/05 04:20:30;;;;;;;11.50;4.90;;;;;;;18.14;76.48;99874.29;110379;1276;22205;-83
2023/08/05 04:23:01;;;;;;;16.90;6.70;;;;;;;18.11;76.72;99880.00;110364;1272;22741;-83
2023/08/05 04:25:32;;;;;;;18.40;7.50;;;;;;;18.09;77.09;99877.36;110373;1276;22169;-83
2023/08/05 04:28:04;;;;;;;23.20;10.30;;;;;;;18.07;77.30;99872.21;110369;1276;22968;-83
2023/08/05 04:30:35;;;;;;;27.30;12.60;;;;;;;18.05;77.62;99869.02;110362;1276;22501;-83
2023/08/05 04:33:05;;;;;;;27.30;12.40;;;;;;;18.06;77.81;99869.10;110349;1276;22382;-83
2023/08/05 04:35:36;;;;;;;31.60;13.60;;;;;;;18.08;78.00;99872.08;110363;1272;22218;-83
2023/08/05 04:38:07;;;;;;;34.40;17.80;;;;;;;18.11;78.21;99869.83;110342;1276;22404;-81
2023/08/05 04:40:38;;;;;;;34.80;16.00;;;;;;;18.14;78.38;99871.69;110407;1276;22590;-81
2023/08/05 04:43:09;;;;;;;32.80;13.70;;;;;;;18.16;78.57;99872.61;110366;1276;22311;-81
2023/08/05 04:45:39;;;;;;;29.40;12.80;;;;;;;18.17;78.50;99872.34;110347;1276;22270;-81
2023/08/05 04:48:10;;;;;;;21.30;9.80;;;;;;;18.19;78.69;99872.75;110405;1276;22286;-81
2023/08/05 04:50:41;;;;;;;22.10;9.30;;;;;;;18.22;78.79;99877.39;110388;1276;22141;-81
2023/08/05 04:53:14;;;;;;;22.80;8.70;;;;;;;18.24;78.74;99878.08;110307;1276;22314;-81
2023/08/05 04:55:45;;;;;;;16.60;6.00;;;;;;;18.25;78.76;99872.95;110389;1276;22232;-81
2023/08/05 04:58:16;;;;;;;12.50;3.60;;;;;;;18.24;78.78;99872.38;110309;1276;22267;-81
2023/08/05 05:00:46;;;;;;;16.20;3.30;;;;;;;18.22;78.56;99865.67;110356;1276;22228;-81
2023/08/05 05:03:17;;;;;;;12.10;2.80;;;;;;;18.21;78.55;99871.34;110351;1276;22208;-81
2023/08/05 05:05:48;;;;;;;10.50;2.40;;;;;;;18.20;78.51;99873.05;110357;1276;23070;-81
2023/08/05 05:08:19;;;;;;;10.50;2.70;;;;;;;18.21;78.54;99880.59;110300;1276;22278;-81
2023/08/05 05:10:49;;;;;;;11.30;2.80;;;;;;;18.24;78.67;99883.38;110375;1276;22180;-81
2023/08/05 05:13:20;;;;;;;10.60;2.50;;;;;;;18.25;78.67;99882.86;110452;1276;22230;-81
2023/08/05 05:15:52;;;;;;;12.00;3.10;;;;;;;18.26;78.64;99886.10;110453;1276;23016;-81
2023/08/05 05:18:23;;;;;;;8.90;2.40;;;;;;;18.25;78.68;99890.98;110354;1276;22800;-81
2023/08/05 05:20:54;;;;;;;10.50;2.10;;;;;;;18.24;78.61;99892.26;110313;1277;22539;-81
2023/08/05 05:23:25;;;;;;;11.70;2.60;;;;;;;18.22;78.62;99893.63;110382;1276;22261;-81
2023/08/05 05:25:57;;;;;;;8.60;2.30;;;;;;;18.22;78.59;99886.17;110383;1276;22866;-81
2023/08/05 05:28:27;;;;;;;8.30;2.30;;;;;;;18.24;78.62;99883.88;110375;1276;22242;-81
2023/08/05 05:31:02;;;;;;;8.30;2.40;;;;;;;18.26;78.60;99880.02;110378;1276;22336;-81
2023/08/05 05:33:32;;;;;;;16.00;3.10;;;;;;;18.30;78.49;99880.23;110368;1276;22193;-81
2023/08/05 05:36:03;;;;;;;9.90;2.50;;;;;;;18.30;78.40;99877.40;110386;1276;22180;-81
2023/08/05 05:38:34;;;;;;;10.50;2.90;;;;;;;18.31;78.33;99882.20;110393;1276;22173;-81
2023/08/05 05:41:05;;;;;;;8.30;2.30;;;;;;;18.30;78.15;99883.50;110368;1276;23092;-81
2023/08/05 05:43:38;;;;;;;14.20;3.00;;;;;;;18.29;78.22;99893.96;110373;1276;22216;-81
2023/08/05 05:46:09;;;;;;;8.90;2.60;;;;;;;18.28;78.23;99897.46;110355;1276;22398;-81
2023/08/05 05:48:40;;;;;;;7.70;2.40;;;;;;;18.30;78.13;99899.75;110334;1276;22175;-81
2023/08/05 05:51:11;;;;;;;10.20;2.70;;;;;;;18.31;78.29;99901.58;110342;1276;22186;-81
2023/08/05 05:53:42;;;;;;;8.40;2.60;;;;;;;18.31;78.12;99897.36;110360;1276;22193;-81
2023/08/05 05:56:13;;;;;;;9.30;2.50;;;;;;;18.33;78.06;99894.90;110356;1276;22223;-81
2023/08/05 05:58:44;;;;;;;11.30;2.90;;;;;;;18.34;78.03;99894.38;110334;1277;23051;-81
2023/08/05 06:01:16;;;;;;;7.90;2.60;;;;;;;18.35;77.96;99895.94;110355;1276;22153;-81
2023/08/05 06:03:46;;;;;;;10.70;2.60;;;;;;;18.38;78.00;99888.90;110375;1276;22503;-81
2023/08/05 06:06:17;;;;;;;13.90;3.10;;;;;;;18.41;77.83;99886.70;110408;1273;22188;-81
2023/08/05 06:08:48;;;;;;;12.50;2.60;;;;;;;18.43;77.80;99895.77;110356;1276;22172;-81
2023/08/05 06:11:19;;;;;;;10.20;2.40;;;;;;;18.42;77.72;99897.10;110389;1264;22138;-81
2023/08/05 06:13:50;;;;;;;6.20;2.40;;;;;;;18.43;77.70;99894.84;110374;1276;22167;-81
2023/08/05 06:16:20;;;;;;;10.60;2.60;;;;;;;18.42;77.52;99899.01;110315;1276;22359;-81
2023/08/05 06:18:51;;;;;;;9.60;2.40;;;;;;;18.43;77.48;99900.19;110382;1276;22182;-81
2023/08/05 06:21:22;;;;;;;9.60;2.20;;;;;;;18.44;77.39;99895.10;110339;1277;22481;-81
2023/08/05 06:23:52;;;;;;;9.70;2.30;;;;;;;18.45;77.40;99894.72;110361;1276;22351;-81
2023/08/05 06:26:23;;;;;;;8.00;2.80;;;;;;;18.46;77.37;99893.00;110339;1276;22160;-81
2023/08/05 06:28:54;;;;;;;8.80;1.90;;;;;;;18.48;77.31;99895.02;110355;1276;22181;-81
2023/08/05 06:31:24;;;;;;;8.80;1.80;;;;;;;18.48;77.17;99889.20;110331;1276;22190;-81
2023/08/05 06:33:55;;;;;;;9.60;2.10;;;;;;;18.48;77.08;99885.25;110406;1274;22185;-81
2023/08/05 06:36:26;;;;;;;7.50;1.90;;;;;;;18.50;77.04;99887.69;110382;1267;22153;-81
2023/08/05 06:38:57;;;;;;;6.90;2.00;;;;;;;18.51;77.03;99885.60;110355;1276;23107;-81
2023/08/05 06:41:27;;;;;;;11.10;2.00;;;;;;;18.54;77.13;99886.21;110360;1276;23006;-81
2023/08/05 06:43:58;;;;;;;11.40;2.30;;;;;;;18.58;77.28;99886.76;110341;1276;22320;-81
2023/08/05 06:46:29;;;;;;;6.70;1.90;;;;;;;18.60;77.06;99885.77;110380;1276;22173;-81
2023/08/05 06:48:59;;;;;;;7.80;1.80;;;;;;;18.61;76.94;99884.77;110348;1276;22332;-81
2023/08/05 06:51:31;;;;;;;9.90;1.80;;;;;;;18.62;76.98;99878.63;110370;1276;23025;-81
2023/08/05 06:54:02;;;;;;;14.60;2.20;;;;;;;18.61;77.28;99875.14;110320;1276;23233;-81
2023/08/05 06:56:33;;;;;;;11.30;2.10;;;;;;;18.59;77.50;99871.54;110325;1277;22193;-81
2023/08/05 06:59:04;;;;;;;8.40;2.20;;;;;;;18.59;77.58;99867.47;110353;1276;22324;-82
2023/08/05 07:01:34;;;;;;;7.20;2.20;;;;;;;18.60;77.54;99865.34;110348;1276;22151;-82
2023/08/05 07:04:05;;;;;;;10.70;2.60;;;;;;;18.62;77.80;99865.32;110375;1276;22184;-81
2023/08/05 07:06:36;;;;;;;10.80;2.00;;;;;;;18.61;77.76;99869.08;110355;1276;22341;-81
2023/08/05 07:09:07;;;;;;;8.00;2.40;;;;;;;18.62;77.75;99874.62;110356;1276;22215;-82
2023/08/05 07:11:37;;;;;;;8.30;1.70;;;;;;;18.64;77.90;99875.49;110399;1276;22194;-81
2023/08/05 07:14:08;;;;;;;8.50;2.50;;;;;;;18.63;77.85;99871.14;110362;1274;22161;-81
2023/08/05 07:16:39;;;;;;;8.20;1.80;;;;;;;18.65;77.86;99869.97;110357;1276;22650;-81
2023/08/05 07:19:10;;;;;;;8.20;1.80;;;;;;;18.70;78.27;99869.16;110331;1276;22350;-81
2023/08/05 07:21:40;;;;;;;7.20;2.00;;;;;;;18.72;78.15;99868.57;110347;1276;23089;-81
2023/08/05 07:24:11;;;;;;;9.20;1.90;;;;;;;18.72;78.06;99865.88;110359;1276;23274;-81
2023/08/05 07:26:42;;;;;;;8.80;2.10;;;;;;;18.72;78.13;99863.52;110305;1276;22125;-81
2023/08/05 07:29:12;;;;;;;7.70;2.40;;;;;;;18.72;78.13;99864.95;110352;1276;22285;-82
2023/08/05 07:31:43;;;;;;;6.80;1.90;;;;;;;18.73;77.99;99867.14;110335;1276;22418;-81
2023/08/05 07:34:15;;;;;;;10.70;2.20;;;;;;;18.74;77.84;99868.88;110386;1270;22185;-81
2023/08/05 07:36:46;;;;;;;8.40;2.20;;;;;;;18.75;77.89;99864.02;110368;1276;22169;-82
2023/08/05 07:39:17;;;;;;;6.40;1.80;;;;;;;18.76;78.16;99865.04;110365;1276;22988;-81
2023/08/05 07:41:49;;;;;;;7.70;2.10;;;;;;;18.74;78.17;99862.03;110334;1276;22911;-81
2023/08/05 07:44:19;;;;;;;11.10;2.00;;;;;;;18.75;78.35;99855.54;110341;1270;22175;-81
2023/08/05 07:46:52;;;;;;;12.90;2.60;;;;;;;18.75;78.34;99856.65;110345;1276;22229;-81
2023/08/05 07:49:23;;;;;;;10.10;2.20;;;;;;;18.76;78.68;99851.81;110354;1262;22207;-82
2023/08/05 07:51:55;;;;;;;10.10;2.50;;;;;;;18.79;78.81;99850.11;110349;1276;22164;-81
2023/08/05 07:54:26;;;;;;;8.10;2.10;;;;;;;18.81;78.77;99840.83;110400;1276;22203;-81
2023/08/05 07:56:58;;;;;;;7.80;2.00;;;;;;;18.84;78.89;99840.02;110402;1264;22598;-81
2023/08/05 07:59:30;;;;;;;6.20;1.90;;;;;;;18.88;79.06;99830.64;110358;1276;22154;-82
2023/08/05 08:02:01;;;;;;;10.60;2.10;;;;;;;18.89;79.43;99825.58;110385;1276;22193;-81
2023/08/05 08:04:34;;;;;;;6.50;2.10;;;;;;;18.91;79.55;99823.52;110386;1276;22213;-81
2023/08/05 08:07:05;;;;;;;10.10;2.20;;;;;;;18.93;79.62;99820.13;110348;1276;22257;-82
2023/08/05 08:09:36;;;;;;;10.20;2.20;;;;;;;18.98;79.89;99819.16;110356;1276;22554;-82
2023/08/05 08:12:08;;;;;;;7.20;2.10;;;;;;;19.00;80.22;99822.70;110372;1276;22942;-82
2023/08/05 08:14:39;;;;;;;7.70;2.20;;;;;;;19.02;80.31;99822.00;110374;1276;22364;-81
2023/08/05 08:17:10;;;;;;;10.20;2.50;;;;;;;19.03;80.16;99824.23;110349;1276;22262;-82
2023/08/05 08:19:40;;;;;;;10.70;2.70;;;;;;;19.06;80.45;99817.22;110358;1276;22289;-81
2023/08/05 08:22:11;;;;;;;10.20;2.70;;;;;;;19.11;80.75;99806.52;110378;1276;22236;-81
2023/08/05 08:24:42;;;;;;;6.40;2.20;;;;;;;19.16;80.69;99799.56;110358;1276;22233;-82
2023/08/05 08:27:13;;;;;;;9.70;2.80;;;;;;;19.22;80.87;99797.07;110360;1276;22170;-82
2023/08/05 08:29:43;;;;;;;10.20;2.60;;;;;;;19.26;81.05;99794.85;110392;1276;22196;-82
2023/08/05 08:32:14;;;;;;;7.90;2.20;;;;;;;19.30;80.83;99791.15;110420;1276;22209;-82
2023/08/05 08:34:45;;;;;;;7.10;1.80;;;;;;;19.35;80.89;99792.77;110378;1276;22139;-81
2023/08/05 08:37:16;;;;;;;7.80;2.20;;;;;;;19.40;80.95;99794.03;110384;1276;22192;-82
2023/08/05 08:39:47;;;;;;;7.70;1.80;;;;;;;19.45;80.64;99786.73;110383;1276;22265;-82
2023/08/05 08:42:22;;;;;;;7.50;1.80;;;;;;;19.51;80.63;99778.14;110346;1266;22161;-82
2023/08/05 08:44:53;;;;;;;10.60;2.20;;;;;;;19.57;80.42;99770.92;110397;1276;22231;-81
2023/08/05 08:47:26;;;;;;;6.20;1.70;;;;;;;19.67;80.58;99770.58;110425;1276;22158;-82
2023/08/05 08:49:57;;;;;;;5.30;1.80;;;;;;;19.74;80.30;99773.77;110409;1276;22234;-82
2023/08/05 08:52:30;;;;;;;7.70;2.00;;;;;;;19.82;79.99;99778.98;110343;1276;22385;-81
2023/08/05 08:55:03;;;;;;;7.50;2.00;;;;;;;19.88;79.66;99779.18;110361;1275;22210;-82
2023/08/05 08:57:34;;;;;;;8.30;1.70;;;;;;;19.93;79.34;99779.55;110345;1276;22227;-82
2023/08/05 09:00:05;;;;;;;7.30;1.70;;;;;;;19.98;79.30;99785.86;110348;1276;22323;-82
2023/08/05 09:02:37;;;;;;;11.10;2.00;;;;;;;20.04;79.26;99786.43;110337;1276;22140;-82
2023/08/05 09:05:11;;;;;;;12.80;3.90;;;;;;;20.06;78.73;99786.59;110353;1276;22656;-82
2023/08/05 09:07:42;;;;;;;12.10;3.20;;;;;;;20.07;78.59;99787.71;110376;1276;22198;-82
2023/08/05 09:10:14;;;;;;;10.00;2.00;;;;;;;20.04;78.42;99788.29;110351;1276;22964;-82
2023/08/05 09:12:45;;;;;;;10.00;2.30;;;;;;;20.02;78.38;99784.54;110390;1276;22882;-81
2023/08/05 09:15:18;;;;;;;11.10;2.90;;;;;;;20.01;78.56;99788.27;110349;1276;22241;-82
2023/08/05 09:17:48;;;;;;;7.10;2.40;;;;;;;19.97;78.74;99795.95;110391;1276;22268;-82
2023/08/05 09:20:22;;;;;;;13.80;4.00;;;;;;;19.89;78.83;99804.60;110346;1276;22194;-82
2023/08/05 09:22:57;;;;;;;10.50;3.20;;;;;;;19.82;79.01;99804.10;110360;1276;22278;-82
2023/08/05 09:25:29;;;;;;;19.20;6.60;;;;;;;19.78;79.21;99809.20;110384;1276;22210;-82
2023/08/05 09:28:01;;;;;;;13.10;4.60;;;;;;;19.75;79.07;99809.59;110358;1276;22315;-82
2023/08/05 09:30:32;;;;;;;13.70;5.70;;;;;;;19.71;78.79;99807.48;110355;1276;23235;-82
2023/08/05 09:33:04;;;;;;;18.80;7.60;;;;;;;19.69;78.77;99805.31;110352;1276;22321;-82
2023/08/05 09:35:35;;;;;;;14.80;6.20;;;;;;;19.70;78.84;99809.02;110356;1276;22154;-82
2023/08/05 09:38:13;;;;;;;16.40;4.70;;;;;;;19.71;78.88;99815.96;110362;1276;22180;-82
2023/08/05 09:40:48;;;;;;;11.20;3.50;;;;;;;19.72;78.77;99817.88;110387;1276;22895;-82
2023/08/05 09:43:24;;;;;;;10.80;3.30;;;;;;;19.72;78.83;99814.47;110358;1276;22261;-82
2023/08/05 09:45:54;;;;;;;9.00;2.90;;;;;;;19.74;78.87;99810.85;110351;1263;22164;-82
2023/08/05 09:48:28;;;;;;;8.80;2.40;;;;;;;19.76;78.97;99813.59;110329;1276;22208;-82
2023/08/05 09:51:03;;;;;;;10.60;2.90;;;;;;;19.75;78.74;99812.39;110357;1276;22423;-82
2023/08/05 09:53:36;;;;;;;9.50;3.30;;;;;;;19.73;78.86;99814.73;110366;1276;22103;-82
2023/08/05 09:56:09;;;;;;;10.10;2.60;;;;;;;19.72;78.84;99813.63;110368;1276;22586;-82
2023/08/05 09:58:40;;;;;;;11.20;3.10;;;;;;;19.71;78.87;99810.54;110359;1276;22245;-82
2023/08/05 10:01:12;;;;;;;10.40;3.40;;;;;;;19.68;78.81;99807.20;110375;1276;22162;-82
2023/08/05 10:03:43;;;;;;;13.40;5.10;;;;;;;19.66;78.99;99811.88;110404;1270;22815;-82
2023/08/05 10:06:15;;;;;;;14.70;5.30;;;;;;;19.64;79.10;99807.97;110368;1276;22365;-82
2023/08/05 10:08:47;;;;;;;18.10;7.80;;;;;;;19.62;78.99;99807.72;110414;1276;22324;-82
2023/08/05 10:11:19;;;;;;;23.80;8.40;;;;;;;19.59;79.03;99809.21;110407;1276;22332;-82
2023/08/05 10:13:52;;;;;;;21.40;8.30;;;;;;;19.58;78.99;99810.34;110415;1276;22241;-82
2023/08/05 10:16:25;;;;;;;15.80;5.80;;;;;;;19.57;78.95;99811.39;110359;1276;22608;-82
2023/08/05 10:18:57;;;;;;;18.50;5.10;;;;;;;19.59;78.82;99811.98;110346;1270;22127;-82
2023/08/05 10:21:47;;;;;;;11.60;3.30;;;;;;;19.60;78.82;99813.72;110366;1276;22162;-82
2023/08/05 10:24:20;;;;;;;15.40;3.90;;;;;;;19.62;78.78;99815.70;110334;1276;22258;-82
2023/08/05 10:26:51;;;;;;;11.00;3.70;;;;;;;19.61;78.81;99812.10;110341;1277;22401;-82
2023/08/05 10:29:32;;;;;;;11.50;3.90;;;;;;;19.60;78.90;99803.95;110358;1276;22636;-82
2023/08/05 10:32:15;;;;;;;13.30;4.10;;;;;;;19.61;79.17;99801.56;110380;1276;22347;-82
2023/08/05 10:35:05;;;;;;;13.80;3.90;;;;;;;19.62;79.15;99804.63;110408;1276;22199;-82
2023/08/05 10:37:51;;;;;;;17.50;4.70;;;;;;;19.66;79.07;99805.31;110379;1276;22168;-82
2023/08/05 10:40:42;;;;;;;14.00;3.70;;;;;;;19.66;78.93;99810.48;110352;1276;22421;-82
2023/08/05 10:43:25;;;;;;;17.00;5.00;;;;;;;19.68;78.91;99814.35;110378;1276;22183;-82
2023/08/05 10:45:57;;;;;;;12.30;3.90;;;;;;;19.68;78.84;99814.19;110374;1276;22134;-82
2023/08/05 10:48:32;;;;;;;12.80;3.80;;;;;;;19.69;78.80;99815.92;110369;1276;22164;-82
2023/08/05 10:51:08;;;;;;;18.70;3.40;;;;;;;19.70;78.82;99815.27;110346;1276;22100;-82
2023/08/05 10:53:39;;;;;;;12.50;3.50;;;;;;;19.70;78.95;99805.61;110378;1276;22203;-82
2023/08/05 10:56:14;;;;;;;12.70;3.90;;;;;;;19.70;78.96;99807.02;110376;1276;22310;-82
2023/08/05 10:58:49;;;;;;;11.90;4.00;;;;;;;19.71;79.01;99803.61;110415;1276;22319;-82
2023/08/05 11:01:20;;;;;;;9.00;3.40;;;;;;;19.73;79.15;99800.55;110362;1276;22646;-82
2023/08/05 11:03:56;;;;;;;12.70;4.30;;;;;;;19.74;79.11;99797.69;110404;1265;23009;-82
2023/08/05 11:06:27;;;;;;;9.50;3.60;;;;;;;19.74;79.04;99795.83;110353;1276;22265;-82
2023/08/05 11:09:02;;;;;;;10.00;3.40;;;;;;;19.73;79.20;99796.52;110384;1276;23201;-82
2023/08/05 11:11:33;;;;;;;11.30;4.00;;;;;;;19.73;79.27;99800.85;110396;1276;22143;-82
2023/08/05 11:14:04;;;;;;;9.40;3.80;;;;;;;19.71;79.46;99800.45;110414;1276;22193;-82
2023/08/05 11:16:44;;;;;;;12.30;4.30;;;;;;;19.70;79.43;99798.29;110386;1262;22242;-82
2023/08/05 11:19:15;;;;;;;13.50;4.50;;;;;;;19.73;79.48;99793.06;110387;1276;22236;-82
2023/08/05 11:21:47;;;;;;;13.30;4.30;;;;;;;19.75;79.59;99787.20;110354;1276;22152;-82
2023/08/05 11:24:20;;;;;;;9.60;3.40;;;;;;;19.77;79.68;99786.95;110396;1270;22165;-82
2023/08/05 11:26:51;;;;;;;15.10;4.30;;;;;;;19.77;79.82;99784.11;110348;1276;22773;-82
2023/08/05 11:29:22;;;;;;;11.80;4.40;;;;;;;19.77;79.95;99779.59;110355;1276;22261;-82
2023/08/05 11:31:53;;;;;;;12.50;3.80;;;;;;;19.78;79.91;99780.15;110415;1276;22151;-82
2023/08/05 11:34:25;;;;;;;16.90;4.70;;;;;;;19.79;80.23;99779.48;110325;1276;22147;-82
2023/08/05 11:36:58;;;;;;;14.10;4.30;;;;;;;19.76;80.31;99786.90;110366;1276;22229;-82
2023/08/05 11:39:29;;;;;;;15.90;5.00;;;;;;;19.77;80.55;99788.84;110392;1276;22201;-82
2023/08/05 11:42:01;;;;;;;15.10;5.10;;;;;;;19.77;80.56;99787.66;110397;1276;23003;-82